createdAt,value
2023-01-09T00:00:03.429Z,127.33
2023-01-09T00:15:09.114Z,127.57
2023-01-09T00:30:01.658Z,127.33
2023-01-09T00:45:01.824Z,126.6
2023-01-09T01:00:02.819Z,126.11
2023-01-09T01:15:02.981Z,127.12
2023-01-09T01:30:01.645Z,127.77
2023-01-09T01:45:03.008Z,127.97
2023-01-09T02:00:01.491Z,128.14
2023-01-09T02:15:01.431Z,128.14
2023-01-09T02:30:01.698Z,128.3
2023-01-09T02:45:01.954Z,128.7
2023-01-09T03:00:03.030Z,129.3
2023-01-09T03:15:01.729Z,129.3
2023-01-09T03:30:02.941Z,129.19
2023-01-09T03:45:03.176Z,129.67
2023-01-09T04:00:01.474Z,129.88
2023-01-09T04:15:02.101Z,129.84
2023-01-09T04:30:01.385Z,130.8
2023-01-09T04:45:01.586Z,130.65
2023-01-09T05:00:01.867Z,130.85
2023-01-09T05:15:01.639Z,129.43
2023-01-09T05:30:01.795Z,127.89
2023-01-09T05:45:01.898Z,126.84
2023-01-09T06:00:02.205Z,126.7
2023-01-09T06:15:01.620Z,124.78
2023-01-09T06:30:01.613Z,124.78
2023-01-09T06:45:01.796Z,124.78
2023-01-09T07:00:03.190Z,124.78
2023-01-09T07:15:01.536Z,124.78
2023-01-09T07:30:01.999Z,124.78
2023-01-09T07:45:02.573Z,124.78
2023-01-09T08:00:02.689Z,124.78
2023-01-09T08:15:02.829Z,124.78
2023-01-09T08:30:02.056Z,124.78
2023-01-09T08:45:02.245Z,124.78
2023-01-09T09:00:02.184Z,124.78
2023-01-09T09:15:01.915Z,124.78
2023-01-09T09:30:02.927Z,124.78
2023-01-09T09:45:01.459Z,124.78
2023-01-09T10:00:01.709Z,124.78
2023-01-09T10:15:01.836Z,124.78
2023-01-09T10:30:02.147Z,124.78
2023-01-09T10:45:02.390Z,124.78
2023-01-09T11:00:01.635Z,124.78
2023-01-09T11:15:02.830Z,124.78
2023-01-09T11:30:03.100Z,124.78
2023-01-09T11:45:01.776Z,124.78
2023-01-09T12:00:02.533Z,124.78
2023-01-09T12:15:02.253Z,124.78
2023-01-09T12:30:02.817Z,124.78
2023-01-09T12:45:01.397Z,124.78
2023-01-09T13:00:01.717Z,124.78
2023-01-09T13:15:01.659Z,124.78
2023-01-09T13:30:01.931Z,124.78
2023-01-09T13:45:02.118Z,124.78
2023-01-09T14:00:02.048Z,124.78
2023-01-09T14:15:02.667Z,124.78
2023-01-09T14:30:01.875Z,124.78
2023-01-09T14:45:02.089Z,124.78
2023-01-09T15:00:02.331Z,124.78
2023-01-09T15:15:02.537Z,124.78
2023-01-09T15:30:01.452Z,124.78
2023-01-09T15:45:01.683Z,124.78
2023-01-09T16:00:01.943Z,124.78
2023-01-09T16:15:02.476Z,124.78
2023-01-09T16:30:01.852Z,124.78
2023-01-09T16:45:01.977Z,124.78
2023-01-09T17:00:02.181Z,124.78
2023-01-09T17:15:02.416Z,124.78
2023-01-09T17:30:05.483Z,124.78
2023-01-09T17:45:01.560Z,124.78
2023-01-09T18:00:01.955Z,124.78
2023-01-09T18:15:01.834Z,124.78
2023-01-09T18:30:05.101Z,124.78
2023-01-09T18:45:02.701Z,124.78
2023-01-09T19:00:01.424Z,124.78
2023-01-09T19:15:01.879Z,124.78
2023-01-09T19:30:02.197Z,124.78
2023-01-09T19:45:02.097Z,124.78
2023-01-09T20:00:02.663Z,124.78
2023-01-09T20:15:01.673Z,124.78
2023-01-09T20:30:02.020Z,124.78
2023-01-09T20:45:02.189Z,124.78
2023-01-09T21:00:02.607Z,124.78
2023-01-09T21:15:01.749Z,124.78
2023-01-09T21:30:02.030Z,124.78
2023-01-09T21:45:02.189Z,124.78
2023-01-09T22:00:01.934Z,124.78
2023-01-09T22:15:02.166Z,124.78
2023-01-09T22:30:02.841Z,124.78
2023-01-09T22:45:01.973Z,124.78
2023-01-09T23:00:02.208Z,124.78
2023-01-09T23:15:02.247Z,124.78
2023-01-09T23:30:02.023Z,124.78
2023-01-09T23:45:02.596Z,124.78
